Time;durP1;ratioP1;P1;durP2;ratioP2;P2;SDS_P1;SDS_P2;PMS_P1;PMS_P2;Temp;Humidity;BMP_temperature;BMP_pressure;BME280_temperature;BME280_humidity;BME280_pressure;Samples;Min_cycle;Max_cycle;Signal;HPM_P1;HPM_P2
2022/08/23 00:01:46;;;;;;;1.38;0.30;;;;;;;21.34;72.77;100148.28;5027755;28;20109;-91
2022/08/23 00:04:26;;;;;;;3.60;0.38;;;;;;;21.29;74.08;100151.59;5008238;28;20040;-90
2022/08/23 00:06:52;;;;;;;1.60;0.30;;;;;;;21.26;73.69;100151.25;5029929;28;20057;-86
2022/08/23 00:09:20;;;;;;;0.60;0.40;;;;;;;21.25;74.04;100150.44;5012072;28;20060;-89
2022/08/23 00:11:52;;;;;;;4.78;0.50;;;;;;;21.21;73.87;100146.63;5010834;28;20500;-91
2022/08/23 00:14:28;;;;;;;1.40;0.32;;;;;;;21.20;74.04;100145.78;5027947;28;20045;-87
2022/08/23 00:16:56;;;;;;;1.58;0.50;;;;;;;21.17;74.11;100148.06;5026510;28;20034;-87
2022/08/23 00:19:22;;;;;;;2.63;0.40;;;;;;;21.16;73.82;100141.16;5030113;28;20033;-89
2022/08/23 00:21:50;;;;;;;1.13;0.38;;;;;;;21.15;73.30;100150.13;5030879;28;20029;-86
2022/08/23 00:24:16;;;;;;;1.13;0.30;;;;;;;21.16;73.38;100155.19;5002046;28;20431;-90
2022/08/23 00:26:55;;;;;;;0.55;0.30;;;;;;;21.15;71.15;100150.13;5013212;28;20119;-89
2022/08/23 00:29:25;;;;;;;2.22;0.30;;;;;;;21.22;71.37;100144.78;5026952;28;20029;-90
2022/08/23 00:31:50;;;;;;;0.80;0.40;;;;;;;21.22;71.07;100148.25;5027901;28;20099;-88
2022/08/23 00:34:16;;;;;;;2.53;0.43;;;;;;;21.23;71.30;100151.69;5026982;28;20485;-89
2022/08/23 00:36:43;;;;;;;3.35;0.50;;;;;;;21.26;70.44;100144.13;5009744;28;20079;-88
2022/08/23 00:39:10;;;;;;;5.03;0.43;;;;;;;21.27;70.68;100148.34;5010886;28;20122;-89
2022/08/23 00:41:38;;;;;;;1.60;0.35;;;;;;;21.22;71.36;100145.59;5030258;28;20030;-86
2022/08/23 00:49:53;;;;;;;4.22;0.47;;;;;;;21.01;73.74;100143.34;5026823;28;20064;-87
2022/08/23 00:52:33;;;;;;;3.95;0.40;;;;;;;20.97;73.41;100142.16;5027621;28;20223;-86
2022/08/23 00:55:02;;;;;;;3.55;0.30;;;;;;;20.98;73.85;100154.38;5009976;28;20171;-90
2022/08/23 00:57:28;;;;;;;1.67;0.32;;;;;;;20.97;73.66;100145.63;5010026;28;20088;-89
2022/08/23 00:59:54;;;;;;;2.05;0.30;;;;;;;20.97;73.81;100153.56;5027243;28;20037;-86
2022/08/23 01:02:19;;;;;;;1.48;0.30;;;;;;;20.97;74.26;100147.47;5010737;28;20385;-86
2022/08/23 01:04:55;;;;;;;1.80;0.40;;;;;;;20.92;73.91;100149.94;5028080;28;20179;-88
2022/08/23 01:07:26;;;;;;;3.53;0.30;;;;;;;20.92;74.67;100148.13;5011251;28;20037;-87
2022/08/23 01:09:56;;;;;;;1.05;0.30;;;;;;;20.94;74.62;100148.72;5026575;28;20037;-91
2022/08/23 01:12:34;;;;;;;1.63;0.40;;;;;;;20.92;74.57;100144.66;5011651;28;20065;-86
2022/08/23 01:15:09;;;;;;;1.23;0.38;;;;;;;20.88;74.63;100139.00;5009901;28;20335;-84
2022/08/23 01:17:41;;;;;;;;;;;;;;;20.81;74.86;100146.19;5012123;28;20025;-87
2022/08/23 01:20:14;;;;;;;2.00;0.60;;;;;;;20.79;75.12;100142.97;5002153;28;20008;-88
2022/08/23 01:22:49;;;;;;;3.60;0.40;;;;;;;20.79;75.12;100143.78;5020891;28;20392;-84
2022/08/23 01:25:20;;;;;;;3.75;0.30;;;;;;;20.80;74.78;100150.66;5029473;28;20547;-85
2022/08/23 01:27:46;;;;;;;2.03;0.30;;;;;;;20.78;75.02;100142.16;5009032;28;20026;-88
2022/08/23 01:30:14;;;;;;;5.25;0.40;;;;;;;20.78;75.25;100144.00;5028120;28;20033;-89
2022/08/23 01:32:49;;;;;;;0.65;0.30;;;;;;;20.75;75.12;100145.25;5027983;28;20369;-85
2022/08/23 01:35:16;;;;;;;2.25;0.40;;;;;;;20.74;75.66;100146.28;5026002;28;20091;-87
2022/08/23 01:37:42;;;;;;;1.42;0.40;;;;;;;20.73;75.55;100146.50;5027894;28;20030;-84
2022/08/23 01:40:08;;;;;;;1.38;0.52;;;;;;;20.70;75.39;100146.94;5007854;28;20149;-90
2022/08/23 01:42:33;;;;;;;1.67;0.30;;;;;;;20.69;75.15;100150.59;5027321;28;20558;-90
2022/08/23 01:44:59;;;;;;;7.03;0.40;;;;;;;20.66;75.73;100141.25;5027089;28;20056;-87
2022/08/23 01:47:24;;;;;;;1.58;0.57;;;;;;;20.68;75.20;100143.69;5028826;28;20097;-84
2022/08/23 01:49:50;;;;;;;0.82;0.30;;;;;;;20.63;75.35;100141.69;5029102;28;20029;-85
2022/08/23 01:52:16;;;;;;;2.55;0.50;;;;;;;20.65;74.63;100154.72;5026619;28;20104;-87
2022/08/23 01:54:42;;;;;;;0.82;0.40;;;;;;;20.64;75.47;100153.91;5026760;28;20040;-86
2022/08/23 01:57:09;;;;;;;1.60;0.40;;;;;;;20.63;75.23;100147.00;5026835;28;20064;-88
2022/08/23 01:59:35;;;;;;;3.90;0.40;;;;;;;20.69;74.82;100154.06;5026865;28;20026;-89
2022/08/23 02:02:02;;;;;;;3.72;0.50;;;;;;;20.71;74.64;100152.00;5020014;28;20475;-86
2022/08/23 02:04:28;;;;;;;0.80;0.30;;;;;;;20.69;75.06;100156.72;5009525;28;20053;-85
2022/08/23 02:06:53;;;;;;;3.45;0.40;;;;;;;20.67;75.14;100153.47;5029118;28;20048;-88
2022/08/23 02:09:19;;;;;;;2.22;0.30;;;;;;;20.73;74.62;100151.78;5027819;28;20025;-85
2022/08/23 02:11:46;;;;;;;1.10;0.40;;;;;;;20.75;74.27;100157.69;5029070;28;20036;-84
2022/08/23 02:14:20;;;;;;;1.13;0.32;;;;;;;20.76;73.71;100159.28;5012614;28;20032;-88
2022/08/23 02:16:49;;;;;;;2.08;0.38;;;;;;;20.77;73.79;100159.09;5054571;28;20056;-85
2022/08/23 02:19:16;;;;;;;2.38;0.30;;;;;;;20.75;73.83;100158.50;5051782;28;20029;-85
2022/08/23 02:21:41;;;;;;;5.50;0.52;;;;;;;20.74;73.95;100156.88;5036733;28;20085;-85
2022/08/23 02:24:15;;;;;;;2.38;0.32;;;;;;;20.79;73.25;100161.50;5052238;28;20013;-83
2022/08/23 02:26:48;;;;;;;4.72;0.50;;;;;;;20.82;72.67;100156.56;5042224;28;20037;-83
2022/08/23 02:29:17;;;;;;;2.72;0.30;;;;;;;20.83;73.21;100158.19;5020555;28;20037;-86
2022/08/23 02:31:45;;;;;;;7.38;0.65;;;;;;;20.79;72.98;100161.50;4991839;28;20037;-86
2022/08/23 02:34:12;;;;;;;2.22;0.40;;;;;;;20.79;73.61;100161.50;5025428;28;20077;-87
2022/08/23 02:36:38;;;;;;;3.10;0.40;;;;;;;20.79;73.72;100166.81;5028103;28;20034;-84
2022/08/23 02:39:06;;;;;;;0.70;0.50;;;;;;;20.79;74.04;100167.63;5026305;28;20390;-86
2022/08/23 02:41:32;;;;;;;1.33;0.30;;;;;;;20.78;73.87;100163.34;5026940;28;20033;-84
2022/08/23 02:43:58;;;;;;;0.90;0.30;;;;;;;20.80;73.16;100171.84;5026864;28;20029;-87
2022/08/23 02:46:24;;;;;;;2.47;0.40;;;;;;;20.80;72.88;100163.91;5025356;28;20460;-83
2022/08/23 02:48:49;;;;;;;2.28;0.40;;;;;;;20.76;73.12;100165.41;5027012;28;20079;-85
2022/08/23 02:51:16;;;;;;;2.65;0.50;;;;;;;20.78;73.10;100166.00;5029373;28;20034;-83
2022/08/23 02:53:44;;;;;;;4.18;0.30;;;;;;;20.79;72.35;100167.63;5029968;28;20025;-83
2022/08/23 02:56:11;;;;;;;2.28;0.40;;;;;;;20.77;72.76;100176.81;5031387;28;20064;-86
2022/08/23 02:58:37;;;;;;;0.70;0.40;;;;;;;20.74;73.11;100186.00;5031729;28;20507;-85
2022/08/23 03:01:02;;;;;;;2.55;0.40;;;;;;;20.75;72.32;100170.91;5030072;28;20033;-84
2022/08/23 03:03:28;;;;;;;2.50;0.40;;;;;;;20.73;72.36;100180.91;5029690;28;20060;-88
2022/08/23 03:05:54;;;;;;;1.38;0.47;;;;;;;20.72;73.04;100180.09;5030053;28;20065;-82
2022/08/23 03:08:20;;;;;;;3.13;0.40;;;;;;;20.63;73.60;100172.66;5030200;28;20056;-84
2022/08/23 03:10:48;;;;;;;1.05;0.30;;;;;;;20.54;74.14;100175.56;5029999;28;20477;-88
2022/08/23 03:13:15;;;;;;;0.95;0.30;;;;;;;20.54;74.22;100180.84;5211583;22;20407;-87
2022/08/23 03:15:40;;;;;;;1.48;0.47;;;;;;;20.55;73.83;100176.38;4993355;28;20815;-88
2022/08/23 03:18:07;;;;;;;3.95;0.40;;;;;;;20.56;74.15;100172.69;4993582;28;20073;-85
2022/08/23 03:20:34;;;;;;;1.30;0.40;;;;;;;20.56;74.30;100178.00;4990525;28;20026;-86
2022/08/23 03:23:00;;;;;;;1.98;0.40;;;;;;;20.58;73.78;100180.41;4982014;28;20031;-82
2022/08/23 03:25:25;;;;;;;1.20;0.70;;;;;;;20.62;73.65;100181.63;4994835;28;20015;-84
2022/08/23 03:27:51;;;;;;;2.42;0.60;;;;;;;20.60;73.76;100181.81;4993642;28;20038;-84
2022/08/23 03:30:16;;;;;;;2.40;0.30;;;;;;;20.61;74.00;100177.34;4977156;28;20023;-84
2022/08/23 03:32:42;;;;;;;1.35;0.30;;;;;;;20.60;73.94;100173.88;5001308;28;20058;-82
2022/08/23 03:35:07;;;;;;;1.95;0.47;;;;;;;20.58;74.38;100175.94;5004879;28;20082;-82
2022/08/23 03:37:33;;;;;;;2.22;0.50;;;;;;;20.59;74.53;100182.03;5000524;28;20041;-87
2022/08/23 03:39:58;;;;;;;1.55;0.40;;;;;;;20.58;73.94;100181.22;4972803;28;20427;-86
2022/08/23 03:42:24;;;;;;;3.40;0.50;;;;;;;20.54;74.03;100182.69;4954948;28;20031;-86
2022/08/23 03:44:50;;;;;;;1.48;0.38;;;;;;;20.50;74.28;100184.94;4972258;28;20046;-87
2022/08/23 03:47:16;;;;;;;1.48;0.40;;;;;;;20.50;74.39;100184.94;4972252;28;20050;-84
2022/08/23 03:49:41;;;;;;;1.52;0.50;;;;;;;20.49;74.78;100188.63;4972510;28;20117;-86
2022/08/23 03:52:07;;;;;;;2.08;0.47;;;;;;;20.41;75.14;100194.19;4986935;28;20042;-85
2022/08/23 03:54:34;;;;;;;1.58;0.40;;;;;;;20.38;75.16;100185.88;4955246;28;20055;-88
2022/08/23 03:57:02;;;;;;;1.88;0.45;;;;;;;20.39;75.04;100192.78;4971961;28;20073;-86
2022/08/23 03:59:30;;;;;;;1.02;0.30;;;;;;;20.39;75.16;100200.72;4986976;28;20203;-85
2022/08/23 04:01:55;;;;;;;5.68;0.65;;;;;;;20.36;75.03;100199.28;4971970;28;20026;-85
2022/08/23 04:04:21;;;;;;;4.55;0.38;;;;;;;20.35;74.87;100202.94;4954246;28;20034;-88
2022/08/23 04:06:47;;;;;;;1.00;0.40;;;;;;;20.40;74.94;100202.34;4972228;28;20030;-86
2022/08/23 04:09:15;;;;;;;2.53;0.57;;;;;;;20.43;74.93;100205.38;5000251;28;20026;-86
2022/08/23 04:11:41;;;;;;;2.38;0.40;;;;;;;20.43;74.63;100204.56;5003338;28;20039;-86
2022/08/23 04:14:07;;;;;;;3.53;0.57;;;;;;;20.43;74.73;100215.13;4986641;28;20133;-88
2022/08/23 04:16:37;;;;;;;3.40;0.50;;;;;;;20.43;74.81;100215.13;4971991;28;20427;-88
2022/08/23 04:19:04;;;;;;;1.85;0.50;;;;;;;20.44;74.46;100220.22;4971908;28;20058;-87
2022/08/23 04:21:30;;;;;;;3.33;0.40;;;;;;;20.45;74.16;100216.53;4971632;28;20029;-84
2022/08/23 04:23:56;;;;;;;1.75;0.40;;;;;;;20.48;74.64;100217.94;4972238;28;20217;-88
2022/08/23 04:26:21;;;;;;;3.00;0.50;;;;;;;20.50;74.31;100224.66;4954065;28;20269;-86
2022/08/23 04:28:47;;;;;;;3.33;0.70;;;;;;;20.55;73.83;100226.66;4985664;28;20031;-86
2022/08/23 04:31:13;;;;;;;1.65;0.35;;;;;;;20.59;73.71;100230.50;4972025;28;20026;-85
2022/08/23 04:33:38;;;;;;;2.35;0.50;;;;;;;20.60;73.41;100237.41;4972410;28;20085;-85
2022/08/23 04:36:04;;;;;;;1.05;0.32;;;;;;;20.60;73.35;100232.13;4971487;28;20026;-88
2022/08/23 04:38:29;;;;;;;1.83;0.52;;;;;;;20.62;72.76;100235.34;4971508;28;20384;-88
2022/08/23 04:43:42;;;;;;;1.43;0.30;;;;;;;20.67;72.41;100238.16;4991097;28;20101;-88
2022/08/23 04:46:08;;;;;;;1.55;0.80;;;;;;;20.69;72.51;100244.06;4984055;28;20270;-87
2022/08/23 04:48:34;;;;;;;1.40;0.40;;;;;;;20.71;72.37;100242.00;4986389;28;20577;-84
2022/08/23 04:50:59;;;;;;;2.15;0.52;;;;;;;20.73;72.03;100247.91;4971449;28;20109;-87
2022/08/23 04:53:25;;;;;;;1.33;0.40;;;;;;;20.72;72.06;100245.47;4971502;28;20023;-89
2022/08/23 04:55:51;;;;;;;1.85;0.50;;;;;;;20.74;72.16;100257.47;4971014;28;20137;-83
2022/08/23 04:58:17;;;;;;;1.65;0.60;;;;;;;20.75;72.16;100251.16;4986753;28;20570;-87
2022/08/23 05:00:42;;;;;;;2.00;0.52;;;;;;;20.77;71.79;100249.09;4986442;28;20389;-89
2022/08/23 05:03:08;;;;;;;2.20;0.50;;;;;;;20.79;71.72;100249.69;4981884;28;20031;-86
2022/08/23 05:05:41;;;;;;;3.90;0.60;;;;;;;20.83;71.39;100250.84;4985988;28;20030;-86
2022/08/23 05:08:06;;;;;;;2.80;0.60;;;;;;;20.82;71.03;100251.88;4977213;28;20049;-84
2022/08/23 05:10:32;;;;;;;1.48;0.32;;;;;;;20.80;71.65;100259.22;4990668;28;20022;-85
2022/08/23 05:12:57;;;;;;;2.75;0.50;;;;;;;20.76;72.09;100260.72;4990263;28;20027;-85
2022/08/23 05:15:22;;;;;;;3.38;0.65;;;;;;;20.77;71.52;100257.03;4989942;28;20429;-86
2022/08/23 05:17:48;;;;;;;2.00;0.80;;;;;;;20.77;72.11;100259.69;4989619;28;20041;-87
2022/08/23 05:20:14;;;;;;;4.15;1.23;;;;;;;20.78;71.57;100263.94;4982952;28;20035;-88
2022/08/23 05:22:40;;;;;;;2.38;0.95;;;;;;;20.80;71.94;100261.06;4980088;28;21968;-88
2022/08/23 05:25:07;;;;;;;2.45;1.00;;;;;;;20.77;72.02;100267.63;4987124;28;20288;-86
2022/08/23 05:27:32;;;;;;;1.20;0.43;;;;;;;20.74;72.47;100270.69;4997331;28;20037;-88
2022/08/23 05:29:58;;;;;;;2.88;0.40;;;;;;;20.73;72.22;100274.38;4996643;28;20382;-84
2022/08/23 05:32:24;;;;;;;2.65;0.50;;;;;;;20.68;72.75;100271.56;4992372;28;20501;-86
2022/08/23 05:34:49;;;;;;;2.10;0.40;;;;;;;20.66;73.31;100272.78;4974082;28;20390;-88
2022/08/23 05:37:15;;;;;;;3.28;0.47;;;;;;;20.65;73.25;100269.34;4981703;28;20058;-87
2022/08/23 05:39:42;;;;;;;2.60;0.70;;;;;;;20.68;73.21;100281.34;4970947;28;20454;-89
2022/08/23 05:42:11;;;;;;;2.30;0.40;;;;;;;20.70;72.99;100281.94;4999453;28;20022;-84
2022/08/23 05:44:39;;;;;;;1.98;0.60;;;;;;;20.70;73.27;100274.81;5011836;28;20355;-86
2022/08/23 05:47:07;;;;;;;1.73;0.60;;;;;;;20.72;73.21;100287.81;4991841;28;20076;-88
2022/08/23 05:49:37;;;;;;;2.53;0.60;;;;;;;20.71;73.25;100284.38;5007773;28;20451;-83
2022/08/23 05:52:05;;;;;;;0.70;0.40;;;;;;;20.71;73.43;100291.50;5009080;28;20059;-86
2022/08/23 05:54:30;;;;;;;2.50;0.70;;;;;;;20.71;73.62;100289.66;4987826;28;20041;-86
2022/08/23 05:56:56;;;;;;;2.55;0.40;;;;;;;20.75;72.90;100292.69;4985231;28;20035;-85
2022/08/23 05:59:21;;;;;;;1.52;0.57;;;;;;;20.78;72.13;100297.56;4969994;28;20035;-86
2022/08/23 06:01:47;;;;;;;1.55;0.40;;;;;;;20.81;71.93;100291.81;4970693;28;20029;-87
2022/08/23 06:04:12;;;;;;;2.95;0.70;;;;;;;20.81;71.46;100295.25;4984917;28;20039;-85
2022/08/23 06:06:40;;;;;;;2.55;0.40;;;;;;;20.85;71.56;100293.00;4970488;28;20030;-85
2022/08/23 06:09:12;;;;;;;0.60;0.32;;;;;;;20.84;71.50;100291.38;4970148;28;20105;-88
2022/08/23 06:11:38;;;;;;;3.92;0.38;;;;;;;20.86;71.41;100286.69;4984012;28;20065;-89
2022/08/23 06:14:05;;;;;;;2.10;0.40;;;;;;;20.86;72.12;100299.91;4984371;28;20399;-86
2022/08/23 06:16:35;;;;;;;1.17;0.40;;;;;;;20.82;71.59;100301.38;4969817;28;20046;-83
2022/08/23 06:19:02;;;;;;;4.40;0.40;;;;;;;20.74;72.55;100297.19;5005590;28;20088;-90
2022/08/23 06:21:29;;;;;;;1.88;0.40;;;;;;;20.73;73.13;100295.56;5009799;28;20026;-89
2022/08/23 06:23:54;;;;;;;3.55;0.40;;;;;;;20.70;73.25;100301.28;5009226;28;20061;-90
2022/08/23 06:26:41;;;;;;;4.20;0.55;;;;;;;20.70;73.19;100309.22;5002693;28;20553;-83
2022/08/23 06:29:09;;;;;;;2.83;0.30;;;;;;;20.75;73.34;100308.56;4972796;28;20109;-87
2022/08/23 06:31:48;;;;;;;2.13;0.60;;;;;;;20.77;73.18;100312.63;4970710;28;20182;-87
2022/08/23 06:34:26;;;;;;;3.72;0.50;;;;;;;20.73;73.86;100303.50;4970617;28;20109;-87
2022/08/23 06:36:54;;;;;;;1.42;0.50;;;;;;;20.68;73.87;100308.63;4970191;28;20110;-87
2022/08/23 06:39:22;;;;;;;9.38;0.75;;;;;;;20.66;74.51;100301.91;4952687;28;20041;-92
2022/08/23 06:41:48;;;;;;;4.53;0.50;;;;;;;20.64;74.89;100312.72;4971574;28;20034;-83
2022/08/23 06:44:14;;;;;;;2.97;0.52;;;;;;;20.71;75.82;100310.84;4971840;28;20137;-89
2022/08/23 06:46:41;;;;;;;2.17;0.50;;;;;;;20.72;75.88;100312.47;4980159;28;20030;-84
2022/08/23 06:49:07;;;;;;;12.00;0.98;;;;;;;20.76;77.18;100315.50;4979365;28;20186;-87
2022/08/23 06:51:36;;;;;;;5.53;0.82;;;;;;;20.74;77.37;100318.34;4990499;28;20101;-85
2022/08/23 06:54:05;;;;;;;5.47;0.50;;;;;;;20.77;76.34;100317.94;4991198;28;20113;-89
2022/08/23 06:56:31;;;;;;;5.00;0.70;;;;;;;20.84;76.66;100321.31;4973562;28;20479;-90
2022/08/23 06:58:58;;;;;;;5.57;0.52;;;;;;;20.87;75.83;100320.88;4980464;28;20109;-86
2022/08/23 07:01:26;;;;;;;7.93;0.40;;;;;;;20.92;75.21;100320.25;5003732;28;20106;-85
2022/08/23 07:03:55;;;;;;;7.93;0.65;;;;;;;20.98;74.58;100326.53;5006571;28;20014;-86
2022/08/23 07:06:31;;;;;;;5.05;0.55;;;;;;;21.09;74.66;100325.81;5009196;28;20030;-82
2022/08/23 07:08:57;;;;;;;7.75;0.65;;;;;;;21.17;74.91;100330.84;5022417;28;20126;-83
2022/08/23 07:11:24;;;;;;;3.75;0.70;;;;;;;21.26;75.30;100329.59;5006012;28;20065;-86
2022/08/23 07:13:51;;;;;;;5.90;0.85;;;;;;;21.33;75.13;100332.97;4999728;28;20110;-85
2022/08/23 07:16:18;;;;;;;3.30;0.50;;;;;;;21.42;75.22;100331.66;4991288;28;20088;-87
2022/08/23 07:18:44;;;;;;;2.17;0.50;;;;;;;21.52;75.21;100341.75;4983119;28;20184;-87
2022/08/23 07:21:11;;;;;;;6.95;0.80;;;;;;;21.62;75.15;100342.06;4969397;28;20043;-83
2022/08/23 07:23:38;;;;;;;4.72;0.60;;;;;;;21.75;74.66;100346.41;4983973;28;20454;-87
2022/08/23 07:26:12;;;;;;;2.40;0.70;;;;;;;21.84;74.45;100335.28;4968910;28;20035;-87
2022/08/23 07:28:38;;;;;;;2.55;0.73;;;;;;;21.94;74.45;100352.53;4969335;28;20418;-89
2022/08/23 07:31:23;;;;;;;2.15;0.40;;;;;;;21.95;71.66;100344.34;4969038;28;20042;-85
2022/08/23 07:33:49;;;;;;;1.67;0.40;;;;;;;21.96;71.44;100353.13;4986976;28;20030;-88
2022/08/23 07:36:18;;;;;;;0.93;0.47;;;;;;;21.95;71.60;100354.97;4962438;28;20050;-85
2022/08/23 07:38:44;;;;;;;3.67;0.40;;;;;;;22.03;70.59;100357.34;4971824;28;20505;-86
2022/08/23 07:41:11;;;;;;;2.75;0.40;;;;;;;22.17;69.61;100363.31;4981821;28;20569;-88
2022/08/23 07:43:40;;;;;;;2.00;0.40;;;;;;;22.23;68.37;100364.25;4991700;28;20062;-84
2022/08/23 07:46:11;;;;;;;1.35;0.32;;;;;;;22.25;67.81;100367.50;4990234;28;20120;-90
2022/08/23 07:48:37;;;;;;;0.80;0.30;;;;;;;22.23;67.85;100369.56;4992892;28;20509;-89
2022/08/23 07:51:06;;;;;;;1.20;0.40;;;;;;;22.22;67.64;100374.06;4991829;28;20027;-92
2022/08/23 07:53:32;;;;;;;0.73;0.32;;;;;;;22.17;67.35;100376.59;4977494;28;20282;-88
2022/08/23 07:55:58;;;;;;;0.70;0.35;;;;;;;22.15;67.35;100378.66;4983586;28;20041;-85
2022/08/23 07:58:24;;;;;;;0.73;0.25;;;;;;;22.16;67.70;100381.09;4974565;28;20022;-87
2022/08/23 08:00:51;;;;;;;1.02;0.22;;;;;;;22.16;67.05;100381.09;4995575;28;20093;-87
2022/08/23 08:03:17;;;;;;;1.15;0.30;;;;;;;22.22;65.99;100383.84;4978931;28;20393;-86
2022/08/23 08:05:43;;;;;;;2.35;0.40;;;;;;;22.26;66.00;100382.38;4993856;28;20034;-87
2022/08/23 08:08:09;;;;;;;1.48;0.38;;;;;;;22.29;66.33;100387.25;4998559;28;20469;-84
2022/08/23 08:10:37;;;;;;;0.52;0.30;;;;;;;22.39;66.46;100384.88;4970262;28;20062;-87
2022/08/23 08:13:03;;;;;;;1.27;0.30;;;;;;;22.45;66.86;100387.44;4984804;28;20061;-88
2022/08/23 08:15:29;;;;;;;1.13;0.30;;;;;;;22.54;66.34;100395.91;4974313;28;20026;-91
2022/08/23 08:17:54;;;;;;;2.08;0.30;;;;;;;22.67;65.99;100397.59;4969886;28;20114;-89
2022/08/23 08:20:21;;;;;;;1.75;0.30;;;;;;;22.70;66.18;100400.59;4978902;28;20118;-87
2022/08/23 08:22:47;;;;;;;1.25;0.55;;;;;;;22.70;65.26;100402.44;4990974;28;20433;-86
2022/08/23 08:25:14;;;;;;;1.45;0.30;;;;;;;22.65;64.99;100405.78;4976134;28;20030;-86
2022/08/23 08:27:40;;;;;;;2.88;0.30;;;;;;;22.70;64.94;100405.09;4964371;28;20085;-90
2022/08/23 08:30:07;;;;;;;1.88;0.30;;;;;;;22.71;65.52;100404.84;4989669;28;20034;-87
2022/08/23 08:32:34;;;;;;;0.75;0.30;;;;;;;22.70;66.29;100400.59;4971893;28;21757;-89
2022/08/23 08:34:59;;;;;;;1.00;0.40;;;;;;;22.70;66.50;100405.09;4973050;28;20449;-88
2022/08/23 08:37:25;;;;;;;2.20;0.30;;;;;;;22.70;65.40;100405.88;4980204;28;20027;-85
2022/08/23 08:39:51;;;;;;;1.45;0.40;;;;;;;22.75;65.04;100405.22;4982669;28;20023;-86
2022/08/23 08:42:19;;;;;;;1.02;0.30;;;;;;;22.75;64.57;100408.69;4990695;28;20038;-86
2022/08/23 08:45:13;;;;;;;1.30;0.40;;;;;;;22.78;64.96;100404.78;4975556;28;20031;-86
2022/08/23 08:48:01;;;;;;;1.13;0.40;;;;;;;22.79;65.02;100411.72;4930852;28;20069;-85
2022/08/23 08:50:40;;;;;;;0.73;0.30;;;;;;;22.80;65.37;100416.00;4978700;28;20433;-86
2022/08/23 08:53:38;;;;;;;0.88;0.30;;;;;;;22.76;65.34;100418.28;4972885;28;20482;-86
2022/08/23 08:56:19;;;;;;;2.03;0.25;;;;;;;22.76;64.67;100418.28;4983202;28;20264;-86
2022/08/23 08:58:50;;;;;;;2.75;0.30;;;;;;;22.77;65.40;100414.59;4992110;28;20030;-86
2022/08/23 09:01:17;;;;;;;0.90;0.35;;;;;;;22.78;64.43;100410.91;4970674;28;20057;-86
2022/08/23 09:03:42;;;;;;;1.70;0.50;;;;;;;22.81;64.48;100412.31;4984285;28;20034;-86
2022/08/23 09:06:14;;;;;;;3.22;0.40;;;;;;;22.82;64.94;100416.59;4979088;28;20328;-86
2022/08/23 09:09:17;;;;;;;1.30;0.50;;;;;;;22.89;65.62;100416.50;4986605;28;20088;-85
2022/08/23 09:12:26;;;;;;;2.20;0.32;;;;;;;22.96;64.19;100418.03;4975837;28;20031;-85
2022/08/23 09:15:13;;;;;;;0.70;0.30;;;;;;;22.95;64.18;100416.41;4988031;28;20425;-86
2022/08/23 09:17:48;;;;;;;1.67;0.38;;;;;;;23.01;64.51;100409.38;4973540;28;20038;-85
2022/08/23 09:20:14;;;;;;;;;;;;;;;22.98;61.40;100420.47;4994255;28;20069;-86
2022/08/23 09:22:43;;;;;;;0.47;0.20;;;;;;;23.00;63.53;100415.75;4976248;28;20008;-86
2022/08/23 09:25:10;;;;;;;1.48;0.30;;;;;;;23.15;64.30;100411.63;4989989;28;20240;-86
2022/08/23 09:27:37;;;;;;;0.50;0.30;;;;;;;23.40;62.96;100424.72;4971922;28;20081;-86
2022/08/23 09:30:04;;;;;;;0.70;0.30;;;;;;;23.60;61.89;100424.41;4989478;28;20166;-85
2022/08/23 09:32:44;;;;;;;0.50;0.30;;;;;;;23.67;59.82;100419.75;4987928;28;20061;-85
2022/08/23 09:35:16;;;;;;;2.15;0.30;;;;;;;23.72;61.36;100416.41;4988876;28;20030;-86
2022/08/23 09:37:54;;;;;;;1.30;0.20;;;;;;;23.72;59.92;100416.41;4989253;28;20049;-84
2022/08/23 09:40:25;;;;;;;0.52;0.30;;;;;;;23.76;60.41;100412.25;4978840;28;20061;-85
2022/08/23 09:43:18;;;;;;;1.50;0.30;;;;;;;23.91;58.86;100406.47;4988030;28;20038;-84
2022/08/23 09:45:49;;;;;;;2.13;0.30;;;;;;;24.00;60.51;100403.22;4976518;28;20073;-84
2022/08/23 09:48:39;;;;;;;1.85;0.45;;;;;;;24.02;58.17;100398.47;4970139;28;20435;-85
2022/08/23 09:51:32;;;;;;;1.75;0.65;;;;;;;23.98;58.48;100397.31;4980479;28;20030;-86
2022/08/23 09:54:34;;;;;;;2.58;0.30;;;;;;;24.04;59.35;100398.22;4991882;28;20030;-86
2022/08/23 09:57:05;;;;;;;0.52;0.30;;;;;;;24.05;59.99;100397.19;4918197;29;20059;-86
2022/08/23 09:59:34;;;;;;;2.63;0.30;;;;;;;24.08;60.12;100402.84;4910120;29;20088;-86
2022/08/23 10:02:00;;;;;;;1.30;0.32;;;;;;;24.33;58.47;100396.44;4928441;29;20032;-85
2022/08/23 10:04:55;;;;;;;1.27;0.38;;;;;;;24.54;58.11;100395.81;4917060;29;20390;-85
2022/08/23 10:07:37;;;;;;;1.33;0.30;;;;;;;24.56;59.05;100399.03;4928866;29;20106;-86
2022/08/23 10:10:14;;;;;;;1.55;0.32;;;;;;;24.50;59.50;100399.19;4917074;29;20036;-85
2022/08/23 10:12:40;;;;;;;8.85;0.90;;;;;;;24.48;59.63;100402.06;4923692;29;20054;-85
2022/08/23 10:15:08;;;;;;;3.75;0.50;;;;;;;24.47;58.92;100400.47;4926643;29;20143;-86
2022/08/23 10:17:52;;;;;;;6.38;1.08;;;;;;;24.42;58.94;100411.00;4909181;29;20040;-85
2022/08/23 10:20:33;;;;;;;2.05;0.30;;;;;;;24.42;58.48;100411.00;4911177;29;20044;-85
2022/08/23 10:23:23;;;;;;;1.90;0.50;;;;;;;24.39;59.02;100406.16;4916831;29;20051;-84
2022/08/23 10:25:58;;;;;;;2.47;0.40;;;;;;;24.37;59.07;100418.91;4913079;29;20044;-86
2022/08/23 10:31:50;;;;;;;0.90;0.28;;;;;;;24.35;60.31;100410.34;4989032;28;20136;-86
2022/08/23 10:34:25;;;;;;;1.63;0.60;;;;;;;24.30;59.53;100408.38;5019772;28;20033;-84
2022/08/23 10:36:57;;;;;;;1.93;0.20;;;;;;;24.28;59.74;100407.00;5027720;28;20046;-85
2022/08/23 10:39:28;;;;;;;1.05;0.30;;;;;;;24.28;60.69;100399.81;4980661;28;20065;-85
2022/08/23 10:42:14;;;;;;;0.50;0.20;;;;;;;24.31;60.92;100415.31;4981173;28;20049;-85
2022/08/23 10:45:02;;;;;;;0.60;0.20;;;;;;;24.30;62.03;100397.72;4993993;28;20043;-86
2022/08/23 10:47:49;;;;;;;2.05;0.30;;;;;;;24.29;60.31;100398.78;4975973;28;20289;-87
2022/08/23 10:50:21;;;;;;;0.80;0.30;;;;;;;24.37;60.98;100393.06;4974167;28;20038;-88
2022/08/23 10:53:29;;;;;;;1.20;0.30;;;;;;;24.40;61.09;100397.94;4976592;28;20386;-86
2022/08/23 10:56:02;;;;;;;0.70;0.20;;;;;;;24.50;60.45;100396.50;4974959;28;20035;-87
2022/08/23 10:58:45;;;;;;;1.20;0.30;;;;;;;24.55;58.88;100392.09;4969658;28;20359;-87
2022/08/23 11:01:39;;;;;;;1.30;0.30;;;;;;;24.61;58.20;100398.28;4976184;28;20031;-85
2022/08/23 11:04:36;;;;;;;1.05;0.40;;;;;;;24.77;58.43;100398.34;4959108;28;20134;-87
2022/08/23 11:07:15;;;;;;;0.40;0.20;;;;;;;25.03;60.65;100390.84;4974288;28;20451;-86
2022/08/23 11:10:12;;;;;;;2.17;0.20;;;;;;;25.02;61.26;100394.53;4967790;28;20074;-87
2022/08/23 11:13:04;;;;;;;1.45;0.20;;;;;;;25.01;59.80;100382.28;4975320;28;20023;-85
2022/08/23 11:15:38;;;;;;;2.50;0.40;;;;;;;25.06;57.84;100387.66;4978958;28;20044;-84
2022/08/23 11:18:08;;;;;;;0.47;0.20;;;;;;;25.06;57.50;100385.81;4989256;28;20053;-85
2022/08/23 11:20:49;;;;;;;0.22;0.17;;;;;;;24.97;58.47;100387.28;4998013;28;20553;-85
2022/08/23 11:23:35;;;;;;;0.40;0.20;;;;;;;24.95;59.87;100378.69;4991162;28;20038;-87
2022/08/23 11:26:03;;;;;;;0.75;0.20;;;;;;;24.98;58.05;100382.75;4980728;28;20034;-85
2022/08/23 11:28:52;;;;;;;0.63;0.28;;;;;;;25.01;55.95;100376.94;4979114;28;20146;-86
2022/08/23 11:31:24;;;;;;;0.40;0.20;;;;;;;25.10;56.26;100378.94;4987629;28;20062;-86
2022/08/23 11:34:00;;;;;;;0.77;0.20;;;;;;;25.16;55.22;100379.03;4981353;28;20549;-85
2022/08/23 11:36:27;;;;;;;0.93;0.20;;;;;;;25.24;56.32;100383.97;4972916;28;20035;-87
2022/08/23 11:38:54;;;;;;;0.35;0.20;;;;;;;25.31;55.87;100382.75;4965896;28;20461;-89
2022/08/23 11:41:22;;;;;;;0.85;0.20;;;;;;;25.36;53.33;100376.69;4989858;28;20037;-85
2022/08/23 11:44:12;;;;;;;0.52;0.20;;;;;;;25.47;53.13;100383.78;4974712;28;20062;-87
2022/08/23 11:46:58;;;;;;;0.50;0.20;;;;;;;25.51;53.42;100389.44;4960881;28;20149;-86
2022/08/23 11:49:29;;;;;;;0.93;0.20;;;;;;;25.52;55.86;100380.41;4954858;28;20133;-86
2022/08/23 11:52:20;;;;;;;23.10;2.47;;;;;;;25.56;52.93;100384.16;4979127;28;20030;-87
2022/08/23 11:55:27;;;;;;;11.38;0.75;;;;;;;25.45;53.71;100383.22;4986443;28;20034;-87